createdAt,value
2022-12-24T00:01:32.048Z,5.77
2022-12-24T00:03:58.121Z,6.10
2022-12-24T00:06:24.160Z,7.60
2022-12-24T00:08:50.724Z,3.43
2022-12-24T00:11:17.283Z,2.80
2022-12-24T00:13:43.359Z,4.43
2022-12-24T00:16:09.448Z,2.27
2022-12-24T00:18:39.919Z,3.33
2022-12-24T00:21:09.633Z,2.63
2022-12-24T00:23:35.696Z,3.57
2022-12-24T00:26:01.760Z,3.63
2022-12-24T00:28:27.849Z,2.13
2022-12-24T00:30:54.032Z,2.13
2022-12-24T00:33:24.687Z,8.50
2022-12-24T00:35:52.179Z,3.17
2022-12-24T00:38:18.271Z,3.07
2022-12-24T00:40:44.341Z,3.30
2022-12-24T00:43:10.486Z,2.70
2022-12-24T00:45:36.531Z,4.03
2022-12-24T00:48:02.710Z,3.10
2022-12-24T00:50:28.772Z,2.60
2022-12-24T00:52:54.835Z,2.40
2022-12-24T00:55:20.872Z,3.33
2022-12-24T00:57:47.017Z,6.03
2022-12-24T01:00:15.242Z,3.73
2022-12-24T01:02:41.487Z,2.60
2022-12-24T01:05:10.551Z,3.43
2022-12-24T01:07:43.250Z,1.83
2022-12-24T01:10:10.792Z,2.60
2022-12-24T01:12:37.526Z,2.20
2022-12-24T01:15:04.676Z,2.30
2022-12-24T01:17:31.972Z,3.50
2022-12-24T01:19:58.004Z,2.93
2022-12-24T01:22:24.049Z,1.80
2022-12-24T01:24:50.119Z,1.70
2022-12-24T01:27:16.176Z,1.50
2022-12-24T01:29:42.288Z,1.20
2022-12-24T01:32:08.459Z,1.20
2022-12-24T01:34:34.587Z,2.60
2022-12-24T01:37:00.685Z,4.17
2022-12-24T01:39:26.763Z,2.00
2022-12-24T01:42:11.445Z,4.70
2022-12-24T01:44:43.082Z,2.00
2022-12-24T01:47:29.367Z,2.57
2022-12-24T01:50:12.863Z,1.30
2022-12-24T01:52:39.030Z,3.93
2022-12-24T01:55:07.859Z,3.43
2022-12-24T01:57:46.314Z,2.10
2022-12-24T02:00:14.177Z,4.00
2022-12-24T02:02:42.558Z,4.10
2022-12-24T02:05:21.053Z,3.73
2022-12-24T02:07:47.251Z,3.83
2022-12-24T02:10:13.719Z,1.80
2022-12-24T02:12:40.115Z,2.47
2022-12-24T02:15:12.099Z,2.23
2022-12-24T02:18:01.788Z,2.73
2022-12-24T02:21:01.555Z,4.03
2022-12-24T02:24:02.768Z,3.37
2022-12-24T02:26:53.172Z,4.90
2022-12-24T02:29:37.895Z,3.20
2022-12-24T02:32:13.643Z,9.03
2022-12-24T02:34:54.874Z,6.93
2022-12-24T02:37:31.128Z,6.33
2022-12-24T02:40:16.064Z,2.23
2022-12-24T02:42:46.352Z,4.10
2022-12-24T02:45:17.928Z,5.63
2022-12-24T02:47:44.831Z,3.73
2022-12-24T02:50:13.627Z,3.63
2022-12-24T02:52:42.380Z,11.73
2022-12-24T02:55:20.719Z,2.67
2022-12-24T02:58:22.008Z,2.40
2022-12-24T03:00:50.799Z,2.47
2022-12-24T03:03:38.197Z,4.23
2022-12-24T03:06:29.005Z,2.97
2022-12-24T03:09:00.353Z,4.20
2022-12-24T03:11:26.477Z,5.37
2022-12-24T03:13:53.858Z,8.37
2022-12-24T03:16:24.764Z,5.23
2022-12-24T03:18:52.020Z,6.60
2022-12-24T03:21:28.680Z,2.53
2022-12-24T03:23:55.558Z,9.70
2022-12-24T03:26:22.531Z,8.40
2022-12-24T03:28:48.703Z,3.90
2022-12-24T03:31:15.810Z,3.77
2022-12-24T03:33:42.172Z,8.93
2022-12-24T03:36:09.032Z,6.07
2022-12-24T03:38:35.196Z,1.90
2022-12-24T03:41:01.710Z,8.53
2022-12-24T03:43:27.805Z,6.50
2022-12-24T03:45:53.914Z,7.30
2022-12-24T03:48:19.984Z,9.70
2022-12-24T03:50:46.188Z,2.90
2022-12-24T03:53:12.239Z,7.47
2022-12-24T03:55:38.951Z,6.20
2022-12-24T03:58:05.260Z,6.97
2022-12-24T04:00:31.384Z,6.33
2022-12-24T04:02:57.546Z,9.97
2022-12-24T04:05:23.646Z,11.60
2022-12-24T04:07:49.703Z,10.50
2022-12-24T04:10:16.415Z,9.60
2022-12-24T04:12:42.660Z,12.53
2022-12-24T04:15:09.656Z,5.87
2022-12-24T04:17:35.848Z,9.03
2022-12-24T04:20:01.950Z,9.47
2022-12-24T04:22:27.971Z,7.00
2022-12-24T04:24:54.040Z,12.20
2022-12-24T04:27:20.662Z,5.47
2022-12-24T04:29:49.499Z,6.57
2022-12-24T04:32:15.597Z,9.23
2022-12-24T04:34:41.658Z,11.37
2022-12-24T04:37:07.664Z,8.20
2022-12-24T04:39:33.751Z,7.60
2022-12-24T04:41:59.816Z,12.07
2022-12-24T04:44:25.895Z,7.23
2022-12-24T04:46:52.047Z,6.50
2022-12-24T04:49:18.103Z,6.50
2022-12-24T04:51:44.150Z,4.83
2022-12-24T04:54:10.240Z,19.60
2022-12-24T04:56:36.559Z,8.70
2022-12-24T04:59:02.631Z,12.60
2022-12-24T05:01:31.714Z,11.03
2022-12-24T05:03:58.481Z,11.93
2022-12-24T05:06:30.712Z,11.63
2022-12-24T05:08:57.630Z,12.47
2022-12-24T05:11:24.135Z,11.47
2022-12-24T05:13:50.297Z,6.93
2022-12-24T05:16:17.757Z,2.97
2022-12-24T05:18:43.996Z,5.67
2022-12-24T05:21:13.208Z,7.43
2022-12-24T05:23:57.999Z,7.90
2022-12-24T05:26:33.355Z,8.53
2022-12-24T05:29:00.658Z,11.27
2022-12-24T05:31:29.069Z,16.87
2022-12-24T05:33:55.213Z,8.00
2022-12-24T05:36:22.123Z,10.10
2022-12-24T05:38:48.760Z,12.55
2022-12-24T05:41:15.094Z,11.83
2022-12-24T05:43:41.372Z,10.37
2022-12-24T05:46:10.061Z,8.90
2022-12-24T05:48:36.219Z,11.53
2022-12-24T05:51:07.699Z,10.60
2022-12-24T05:53:34.594Z,9.33
2022-12-24T05:56:08.912Z,15.13
2022-12-24T05:58:35.724Z,14.03
2022-12-24T06:01:03.454Z,7.90
2022-12-24T06:03:30.304Z,11.27
2022-12-24T06:06:05.703Z,8.23
2022-12-24T06:08:32.513Z,8.47
2022-12-24T06:11:00.616Z,4.43
2022-12-24T06:13:27.203Z,8.50
2022-12-24T06:15:57.778Z,10.33
2022-12-24T06:18:24.260Z,10.33
2022-12-24T06:20:54.174Z,8.73
2022-12-24T06:23:21.182Z,4.17
2022-12-24T06:25:47.698Z,11.83
2022-12-24T06:28:14.439Z,11.60
2022-12-24T06:30:40.972Z,12.70
2022-12-24T06:33:07.281Z,13.17
2022-12-24T06:35:33.578Z,11.87
2022-12-24T06:37:59.773Z,14.00
2022-12-24T06:40:26.592Z,9.77
2022-12-24T06:42:52.710Z,9.87
2022-12-24T06:45:18.998Z,11.23
2022-12-24T06:47:45.087Z,5.03
2022-12-24T06:50:11.632Z,12.00
2022-12-24T06:52:37.933Z,5.63
2022-12-24T06:55:04.690Z,11.13
2022-12-24T06:57:33.464Z,4.63
2022-12-24T07:00:00.005Z,8.67
2022-12-24T07:02:26.327Z,8.60
2022-12-24T07:04:52.644Z,7.43
2022-12-24T07:07:18.810Z,13.83
2022-12-24T07:09:44.935Z,9.73
2022-12-24T07:12:11.084Z,11.63
2022-12-24T07:14:37.118Z,16.00
2022-12-24T07:17:04.181Z,15.10
2022-12-24T07:19:30.396Z,11.47
2022-12-24T07:21:56.648Z,8.63
2022-12-24T07:24:22.857Z,11.60
2022-12-24T07:26:49.001Z,11.53
2022-12-24T07:29:15.126Z,10.40
2022-12-24T07:31:41.446Z,6.17
2022-12-24T07:34:07.688Z,8.30
2022-12-24T07:36:33.940Z,8.77
2022-12-24T07:39:00.133Z,13.37
2022-12-24T07:41:26.166Z,14.57
2022-12-24T07:43:52.336Z,12.90
2022-12-24T07:46:18.533Z,21.30
2022-12-24T07:48:44.663Z,19.73
2022-12-24T07:51:10.823Z,10.43
2022-12-24T07:53:36.969Z,11.73
2022-12-24T07:56:07.542Z,8.37
2022-12-24T07:58:36.797Z,9.57
2022-12-24T08:01:02.900Z,8.60
2022-12-24T08:03:29.280Z,8.67
2022-12-24T08:05:55.830Z,8.70
2022-12-24T08:08:22.115Z,14.57
2022-12-24T08:10:48.292Z,11.07
2022-12-24T08:13:14.826Z,17.93
2022-12-24T08:15:41.519Z,4.97
2022-12-24T08:18:07.702Z,10.33
2022-12-24T08:20:33.888Z,9.57
2022-12-24T08:22:59.942Z,10.63
2022-12-24T08:25:25.988Z,7.93
2022-12-24T08:27:52.184Z,10.63
2022-12-24T08:30:21.213Z,7.40
2022-12-24T08:32:48.043Z,7.90
2022-12-24T08:35:14.241Z,10.77
2022-12-24T08:37:40.288Z,6.80
2022-12-24T08:40:07.080Z,13.03
2022-12-24T08:42:33.388Z,6.60
2022-12-24T08:44:59.819Z,11.27
2022-12-24T08:47:26.665Z,8.63
2022-12-24T08:49:52.789Z,12.67
2022-12-24T08:52:19.068Z,8.57
2022-12-24T08:54:45.305Z,11.03
2022-12-24T08:57:11.578Z,6.00
2022-12-24T08:59:37.796Z,10.87
2022-12-24T09:02:04.048Z,7.90
2022-12-24T09:04:30.263Z,9.50
2022-12-24T09:06:56.533Z,2.53
2022-12-24T09:09:22.638Z,4.27
2022-12-24T09:11:48.726Z,6.33
2022-12-24T09:14:15.306Z,6.87
2022-12-24T09:16:41.396Z,3.33
2022-12-24T09:19:07.748Z,4.00
2022-12-24T09:21:33.878Z,6.57
2022-12-24T09:24:00.562Z,3.40
2022-12-24T09:26:29.082Z,4.00
2022-12-24T09:28:56.492Z,5.77
2022-12-24T09:31:22.662Z,6.37
2022-12-24T09:33:50.892Z,11.33
2022-12-24T09:36:17.893Z,4.67
2022-12-24T09:38:44.407Z,3.73
2022-12-24T09:41:30.919Z,6.23
2022-12-24T09:44:35.834Z,3.20
2022-12-24T09:47:10.673Z,5.80
2022-12-24T09:49:47.334Z,6.23
2022-12-24T09:52:18.730Z,7.60
2022-12-24T09:54:51.095Z,4.83
2022-12-24T09:57:25.034Z,4.70
2022-12-24T09:59:51.074Z,6.17
2022-12-24T10:02:19.026Z,4.87
2022-12-24T10:04:46.226Z,10.97
2022-12-24T10:07:12.225Z,6.60
2022-12-24T10:09:47.072Z,6.93
2022-12-24T10:12:22.123Z,4.50
2022-12-24T10:14:57.245Z,4.20
2022-12-24T10:18:00.312Z,6.70
2022-12-24T10:20:35.898Z,5.40
2022-12-24T10:23:10.703Z,6.87
2022-12-24T10:26:01.976Z,5.87
2022-12-24T10:28:41.423Z,5.40
2022-12-24T10:31:08.638Z,2.50
2022-12-24T10:33:42.240Z,7.17
2022-12-24T10:36:12.660Z,5.00
2022-12-24T10:38:39.001Z,7.53
2022-12-24T10:41:05.268Z,3.77
2022-12-24T10:43:31.332Z,5.33
2022-12-24T10:46:09.448Z,3.27
2022-12-24T10:48:43.457Z,3.10
2022-12-24T10:51:23.239Z,6.43
2022-12-24T10:53:58.289Z,3.77
2022-12-24T10:56:24.359Z,3.90
2022-12-24T10:58:53.018Z,4.17
2022-12-24T11:01:43.494Z,2.83
2022-12-24T11:04:18.735Z,11.83
2022-12-24T11:07:02.777Z,6.33
2022-12-24T11:09:42.587Z,3.63
2022-12-24T11:12:27.389Z,4.80
2022-12-24T11:15:27.369Z,8.73
2022-12-24T11:17:54.590Z,6.30
2022-12-24T11:20:24.310Z,4.90
2022-12-24T11:22:52.414Z,6.97
2022-12-24T11:25:21.639Z,9.27
2022-12-24T11:27:50.815Z,11.43
2022-12-24T11:30:29.418Z,13.50
2022-12-24T11:33:02.367Z,9.10
2022-12-24T11:35:32.847Z,6.83
2022-12-24T11:38:02.422Z,13.30
2022-12-24T11:40:33.927Z,9.77
2022-12-24T11:43:00.980Z,10.10
2022-12-24T11:45:29.128Z,10.90
2022-12-24T11:47:56.197Z,7.90
2022-12-24T11:50:36.805Z,16.00
2022-12-24T11:53:02.950Z,11.93
2022-12-24T11:55:49.209Z,9.97
2022-12-24T11:58:39.989Z,10.63
2022-12-24T12:01:24.436Z,11.13
2022-12-24T12:04:03.837Z,8.80
2022-12-24T12:06:35.318Z,6.87
2022-12-24T12:09:23.545Z,15.43
2022-12-24T12:12:04.578Z,13.03
2022-12-24T12:14:40.393Z,11.40
2022-12-24T12:17:51.982Z,14.03
2022-12-24T12:20:33.147Z,15.13
2022-12-24T12:23:15.044Z,16.50
2022-12-24T12:25:51.713Z,12.33
2022-12-24T12:28:20.445Z,15.40
2022-12-24T12:30:53.931Z,9.80
2022-12-24T12:33:38.341Z,12.50
2022-12-24T12:36:05.121Z,10.63
2022-12-24T12:38:31.919Z,5.10
2022-12-24T12:41:07.024Z,8.70
2022-12-24T12:43:40.668Z,6.00
2022-12-24T12:46:06.686Z,9.57
2022-12-24T12:48:54.553Z,12.13
2022-12-24T12:52:06.224Z,6.97
2022-12-24T12:54:40.951Z,7.73
2022-12-24T12:57:12.891Z,8.53
2022-12-24T13:00:11.816Z,6.53
2022-12-24T13:02:43.925Z,8.30
2022-12-24T13:05:48.134Z,8.17
2022-12-24T13:08:35.616Z,8.93
2022-12-24T13:11:15.771Z,8.10
2022-12-24T13:14:23.510Z,8.00
2022-12-24T13:17:25.626Z,18.43
2022-12-24T13:19:51.626Z,11.50
2022-12-24T13:22:21.117Z,14.00
2022-12-24T13:24:54.833Z,13.33
2022-12-24T13:27:27.648Z,16.50
2022-12-24T13:29:56.190Z,13.27
2022-12-24T13:32:22.262Z,12.30
2022-12-24T13:34:50.526Z,15.70
2022-12-24T13:37:19.883Z,9.03
2022-12-24T13:40:09.241Z,10.90
2022-12-24T13:43:26.402Z,13.17
2022-12-24T13:45:52.629Z,9.20
2022-12-24T13:48:29.659Z,14.90
2022-12-24T13:50:58.462Z,13.70
2022-12-24T13:53:32.295Z,8.30
2022-12-24T13:56:13.596Z,13.03
2022-12-24T13:58:50.863Z,9.17
2022-12-24T14:01:19.883Z,10.67
2022-12-24T14:03:54.752Z,14.20
2022-12-24T14:06:32.193Z,11.40
2022-12-24T14:09:11.115Z,8.97
2022-12-24T14:11:58.692Z,11.93
2022-12-24T14:14:27.150Z,22.73
2022-12-24T14:16:56.495Z,7.10
2022-12-24T14:19:25.166Z,10.17
2022-12-24T14:22:11.833Z,13.90
2022-12-24T14:24:42.722Z,7.67
2022-12-24T14:27:19.001Z,8.00
2022-12-24T14:29:51.786Z,7.93
2022-12-24T14:32:17.902Z,7.87
2022-12-24T14:34:44.138Z,11.63
2022-12-24T14:37:12.097Z,6.70
2022-12-24T14:40:07.508Z,10.83
2022-12-24T14:42:48.678Z,8.10
2022-12-24T14:45:25.187Z,12.13
2022-12-24T14:48:03.274Z,10.20
2022-12-24T14:50:48.392Z,7.20
2022-12-24T14:53:19.616Z,14.20
2022-12-24T14:55:47.879Z,8.47
2022-12-24T14:58:29.109Z,8.87
2022-12-24T15:00:58.641Z,10.10
2022-12-24T15:03:27.851Z,7.20
2022-12-24T15:05:57.531Z,12.17
2022-12-24T15:08:45.005Z,11.53
2022-12-24T15:11:16.755Z,12.27
2022-12-24T15:13:45.427Z,12.13
2022-12-24T15:16:21.721Z,9.17
2022-12-24T15:18:56.804Z,10.43
2022-12-24T15:21:31.577Z,13.87
2022-12-24T15:23:57.880Z,10.20
2022-12-24T15:26:29.455Z,9.77
2022-12-24T15:29:02.798Z,11.50
2022-12-24T15:31:30.999Z,11.73
2022-12-24T15:34:00.768Z,11.83
2022-12-24T15:36:28.568Z,12.47
2022-12-24T15:38:57.081Z,9.80
2022-12-24T15:41:25.706Z,15.83
2022-12-24T15:43:52.591Z,11.60
2022-12-24T15:46:20.660Z,15.03
2022-12-24T15:48:47.647Z,14.77
2022-12-24T15:51:21.302Z,18.40
2022-12-24T15:53:48.489Z,14.47
2022-12-24T15:56:34.326Z,12.27
2022-12-24T15:59:17.302Z,16.33
2022-12-24T16:01:44.512Z,22.17
2022-12-24T16:04:24.805Z,15.00
2022-12-24T16:06:56.293Z,11.27
2022-12-24T16:09:34.435Z,16.57
2022-12-24T16:12:04.213Z,15.43
2022-12-24T16:14:31.486Z,9.03
2022-12-24T16:16:57.922Z,11.83
2022-12-24T16:19:27.012Z,17.40
2022-12-24T16:21:55.296Z,13.33
2022-12-24T16:24:24.318Z,15.67
2022-12-24T16:26:51.225Z,15.23
2022-12-24T16:29:18.705Z,19.10
2022-12-24T16:31:47.120Z,19.37
2022-12-24T16:34:14.494Z,19.63
2022-12-24T16:36:44.240Z,17.97
2022-12-24T16:39:30.590Z,13.40
2022-12-24T16:42:17.696Z,15.90
2022-12-24T16:44:44.368Z,11.50
2022-12-24T16:47:22.141Z,13.93
2022-12-24T16:49:48.389Z,15.00
2022-12-24T16:52:18.583Z,15.30
2022-12-24T16:54:44.671Z,16.87
2022-12-24T16:57:10.754Z,14.10
2022-12-24T16:59:37.356Z,17.30
2022-12-24T17:02:07.944Z,20.23
2022-12-24T17:04:36.996Z,20.20
2022-12-24T17:07:03.049Z,21.10
2022-12-24T17:09:29.120Z,23.13
2022-12-24T17:11:55.212Z,16.70
2022-12-24T17:14:21.383Z,22.57
2022-12-24T17:16:47.737Z,17.10
2022-12-24T17:19:13.891Z,17.80
2022-12-24T17:21:40.142Z,18.23
2022-12-24T17:24:07.987Z,19.93
2022-12-24T17:26:34.287Z,15.33
2022-12-24T17:29:02.876Z,16.00
2022-12-24T17:31:29.240Z,21.10
2022-12-24T17:33:55.372Z,51.67
2022-12-24T17:36:21.469Z,17.30
2022-12-24T17:38:47.998Z,14.20
2022-12-24T17:41:16.737Z,22.30
2022-12-24T17:43:43.069Z,22.13
2022-12-24T17:46:12.629Z,19.67
2022-12-24T17:48:38.691Z,22.73
2022-12-24T17:51:06.121Z,17.20
2022-12-24T17:53:36.746Z,20.13
2022-12-24T17:56:03.403Z,22.63
2022-12-24T17:58:29.897Z,22.27
2022-12-24T18:00:56.856Z,28.47
2022-12-24T18:03:23.880Z,25.40
2022-12-24T18:05:51.295Z,25.17
2022-12-24T18:08:18.429Z,28.07
2022-12-24T18:10:44.857Z,27.67
2022-12-24T18:13:15.731Z,31.67
2022-12-24T18:15:45.370Z,24.87
2022-12-24T18:18:11.527Z,36.67
2022-12-24T18:20:44.396Z,24.90
2022-12-24T18:23:12.544Z,18.93
2022-12-24T18:25:38.588Z,30.83
2022-12-24T18:28:04.659Z,24.97
2022-12-24T18:30:30.704Z,23.80
2022-12-24T18:32:56.791Z,23.53
2022-12-24T18:35:24.126Z,27.70
2022-12-24T18:37:50.235Z,31.23
2022-12-24T18:40:17.386Z,35.83
2022-12-24T18:42:43.469Z,31.40
2022-12-24T18:45:10.322Z,28.00
2022-12-24T18:47:36.392Z,36.43
2022-12-24T18:50:02.652Z,31.27
2022-12-24T18:52:31.657Z,29.73
2022-12-24T18:54:57.814Z,25.00
2022-12-24T18:57:23.929Z,29.60
2022-12-24T18:59:50.076Z,29.40
2022-12-24T19:02:16.252Z,30.67
2022-12-24T19:04:42.504Z,34.97
2022-12-24T19:07:08.579Z,42.00
2022-12-24T19:09:34.658Z,32.80
2022-12-24T19:12:00.854Z,35.80
2022-12-24T19:14:26.882Z,34.73
2022-12-24T19:16:53.015Z,39.80
2022-12-24T19:19:23.154Z,48.30
2022-12-24T19:21:50.571Z,49.63
2022-12-24T19:24:16.657Z,49.93
2022-12-24T19:26:42.857Z,55.37
2022-12-24T19:29:08.920Z,50.73
2022-12-24T19:31:35.050Z,45.40
2022-12-24T19:34:01.483Z,48.40
2022-12-24T19:36:28.766Z,39.07
2022-12-24T19:38:56.164Z,44.27
2022-12-24T19:41:25.034Z,39.10
2022-12-24T19:43:53.695Z,39.20
2022-12-24T19:46:22.571Z,40.93
2022-12-24T19:48:50.105Z,36.77
2022-12-24T19:51:16.827Z,44.80
2022-12-24T19:53:42.978Z,35.50
2022-12-24T19:56:09.216Z,39.37
2022-12-24T19:58:35.341Z,32.73
2022-12-24T20:01:14.850Z,38.93
2022-12-24T20:03:42.764Z,29.83
2022-12-24T20:06:09.068Z,30.63
2022-12-24T20:08:36.253Z,28.10
2022-12-24T20:11:07.649Z,27.43
2022-12-24T20:13:34.690Z,31.27
2022-12-24T20:16:09.241Z,28.63
2022-12-24T20:18:35.485Z,27.37
2022-12-24T20:21:03.682Z,27.43
2022-12-24T20:23:29.988Z,27.40
2022-12-24T20:25:58.245Z,25.10
2022-12-24T20:28:25.539Z,25.80
2022-12-24T20:30:51.877Z,27.27
2022-12-24T20:33:18.237Z,33.03
2022-12-24T20:35:44.443Z,28.80
2022-12-24T20:38:10.899Z,23.43
2022-12-24T20:40:45.078Z,38.47
2022-12-24T20:43:12.024Z,29.47
2022-12-24T20:45:38.390Z,33.30
2022-12-24T20:48:06.014Z,23.47
2022-12-24T20:50:32.264Z,30.20
2022-12-24T20:52:58.367Z,28.83
2022-12-24T20:55:24.505Z,26.23
2022-12-24T20:57:51.555Z,26.67
2022-12-24T21:00:19.212Z,26.53
2022-12-24T21:02:46.001Z,19.00
2022-12-24T21:05:12.403Z,26.40
2022-12-24T21:07:39.280Z,20.83
2022-12-24T21:10:07.038Z,23.40
2022-12-24T21:12:48.252Z,22.23
2022-12-24T21:15:16.349Z,28.33
2022-12-24T21:17:42.401Z,23.13
2022-12-24T21:20:09.046Z,25.00
2022-12-24T21:22:35.120Z,26.83
2022-12-24T21:25:01.264Z,23.93
2022-12-24T21:27:28.684Z,25.80
2022-12-24T21:29:54.735Z,22.63
2022-12-24T21:32:20.877Z,21.83
2022-12-24T21:34:47.013Z,25.10
2022-12-24T21:37:13.040Z,23.17
2022-12-24T21:39:39.113Z,15.77
2022-12-24T21:42:05.291Z,27.67
2022-12-24T21:44:34.543Z,24.77
2022-12-24T21:47:00.598Z,20.83
2022-12-24T21:49:44.919Z,25.50
2022-12-24T21:52:11.000Z,19.87
2022-12-24T21:54:37.789Z,25.90
2022-12-24T21:57:24.529Z,16.50
2022-12-24T21:59:52.200Z,19.90
2022-12-24T22:02:19.353Z,20.67
2022-12-24T22:04:45.580Z,23.80
2022-12-24T22:07:37.673Z,23.13
2022-12-24T22:10:22.633Z,20.13
2022-12-24T22:12:48.714Z,20.20
2022-12-24T22:15:14.786Z,19.20
2022-12-24T22:17:40.877Z,21.57
2022-12-24T22:20:08.726Z,25.80
2022-12-24T22:22:34.787Z,26.90
2022-12-24T22:25:00.861Z,20.33
2022-12-24T22:27:26.900Z,17.17
2022-12-24T22:29:52.931Z,28.00
2022-12-24T22:32:19.195Z,20.77
2022-12-24T22:34:45.826Z,16.10
2022-12-24T22:37:12.338Z,24.17
2022-12-24T22:39:38.467Z,14.30
2022-12-24T22:42:04.723Z,19.50
2022-12-24T22:44:30.916Z,23.17
2022-12-24T22:46:57.154Z,19.57
2022-12-24T22:49:23.347Z,18.63
2022-12-24T22:51:49.421Z,28.77
2022-12-24T22:54:15.633Z,29.50
2022-12-24T22:56:42.045Z,24.87
2022-12-24T22:59:09.948Z,18.67
2022-12-24T23:01:37.919Z,28.53
2022-12-24T23:04:06.016Z,16.27
2022-12-24T23:06:32.729Z,21.57
2022-12-24T23:08:58.880Z,15.23
2022-12-24T23:11:25.063Z,16.33
2022-12-24T23:14:10.660Z,25.43
2022-12-24T23:16:36.751Z,19.33
2022-12-24T23:19:04.459Z,20.43
2022-12-24T23:21:31.497Z,19.47
2022-12-24T23:23:59.080Z,12.83
2022-12-24T23:26:25.959Z,18.27
2022-12-24T23:28:52.525Z,13.90
2022-12-24T23:31:19.918Z,14.70
2022-12-24T23:33:46.533Z,26.63
2022-12-24T23:36:12.818Z,25.03
2022-12-24T23:38:38.916Z,17.77
2022-12-24T23:41:06.450Z,19.40
2022-12-24T23:43:32.821Z,17.20
2022-12-24T23:45:59.094Z,10.10
2022-12-24T23:48:26.369Z,20.20
2022-12-24T23:51:05.471Z,16.80
2022-12-24T23:53:31.615Z,18.20
2022-12-24T23:55:57.696Z,17.13
2022-12-24T23:58:23.787Z,24.33
